Hauptseite
METAR-TAF:

METAR-TAF

Flughäfen :

Flughafen Wolgograd

Wolgograd, Russland

Breite: 48-47N, Länge: 044-22E, Höhe: 145 m

Beobachtung

Neuester Wetterbericht von vor 16 Minuten, um 21:00 UTC
Wind 10 kt aus Ost/Südost
Temperatur 22°C
Luftfeuchtigkeit 31%
Luftdruck 1011 hPa
Sichtweite 10 km oder mehr
keine Wolken unter 1500 m und keine Kumulonimbus oder Gewitterwolken

METAR: URWW 232100Z 11005MPS CAVOK 22/04 Q1011 R06/010070 NOSIG

Zeit: 00:16 (21:16 UTC)

Prognose

Neuester Wetterbericht von vor 1 Stunde und 18 Minuten, um 19:58 UTC
Gültige Prognose vom 23 um 21 UTC bis 24 um 06 UTC
Wind 6 kt aus Ost, Böen bis zu 16 kt
Sichtweite 10 km oder mehr
keine Wolken unter 1500 m und keine Kumulonimbus oder Gewitterwolken
Zeitweise
vom 23 um 21 UTC bis 24 um 06 UTC
Wind 10 kt aus Südost, Böen bis zu 19 kt

TAF: URWW 231958Z 2321/2406 10003G08MPS CAVOK TEMPO 2321/2406 13005G10MPS

Wetterbeobachtungen und Prognosen von mehr als 4000 Flughäfen (METAR und TAF Bericht).

Die verfügbaren Stationen werden durch gelbe und rote Markierungen auf der Karte dargestellt.

Führen Sie die Maus auf sie, um den Namen der Station zu sehen.

Darauf klicken, um die Beobachtung von Wetterbeobachtungen und Prognosen zu sehen.

Um die Karte zu ändern : klicken Sie auf den grünen Tasten mit einem schwarzen Kreuz Zum Vergrößern, auf den grünen Button mit einem Gedankenstrich zu verkleinern, oder auf die grünen Pfeile für benachbarte Karten.


METAR-TAF: